Time;durP1;ratioP1;P1;durP2;ratioP2;P2;SDS_P1;SDS_P2;PMS_P1;PMS_P2;Temp;Humidity;BMP_temperature;BMP_pressure;BME280_temperature;BME280_humidity;BME280_pressure;Samples;Min_cycle;Max_cycle;Signal;HPM_P1;HPM_P2
2022/07/24 00:02:15;;;;;;;;;17.33;17.33;;;;;-146.44;100.00;58906.56;5076500;28;46043;-65
2022/07/24 00:04:41;;;;;;;;;18.00;17.50;;;;;-146.44;100.00;58906.56;5076887;28;45364;-65
2022/07/24 00:07:06;;;;;;;;;21.00;20.00;;;;;-146.44;100.00;58906.56;5076963;28;45385;-65
2022/07/24 00:09:31;;;;;;;;;22.67;21.67;;;;;-146.44;100.00;58906.56;5076939;28;45605;-65
2022/07/24 00:11:58;;;;;;;;;20.00;20.00;;;;;-146.44;100.00;58906.56;5076697;28;45405;-65
2022/07/24 00:14:24;;;;;;;;;18.33;17.33;;;;;-146.44;100.00;58906.56;5076758;28;45478;-65
2022/07/24 00:16:49;;;;;;;;;20.00;20.00;;;;;-146.44;100.00;58906.56;5056497;28;45408;-65
2022/07/24 00:19:14;;;;;;;;;23.67;23.00;;;;;-146.44;100.00;58906.56;5056522;28;45425;-65
2022/07/24 00:21:40;;;;;;;;;20.00;19.00;;;;;-146.44;100.00;58906.56;5056241;28;45469;-65
2022/07/24 00:24:05;;;;;;;;;18.75;17.25;;;;;-146.44;100.00;58906.56;5056236;28;45501;-65
2022/07/24 00:26:31;;;;;;;;;17.00;16.25;;;;;-146.44;100.00;58906.56;5056396;28;45422;-65
2022/07/24 00:28:56;;;;;;;;;20.67;20.00;;;;;-146.44;100.00;58906.56;5056595;28;45653;-65
2022/07/24 00:31:22;;;;;;;;;18.00;18.00;;;;;-146.44;100.00;58906.56;5054896;28;47250;-65
2022/07/24 00:33:48;;;;;;;;;18.00;18.00;;;;;-146.44;100.00;58906.56;5056159;28;45374;-65
2022/07/24 00:36:14;;;;;;;;;18.50;17.25;;;;;-146.44;100.00;58906.56;5056314;28;45476;-65
2022/07/24 00:38:39;;;;;;;;;19.50;16.75;;;;;-146.44;100.00;58906.56;5056175;28;45319;-65
2022/07/24 00:41:05;;;;;;;;;20.00;19.25;;;;;-146.44;100.00;58906.56;5055841;28;45351;-65
2022/07/24 00:43:30;;;;;;;;;20.50;20.50;;;;;-146.44;100.00;58906.56;5056127;28;45408;-65
2022/07/24 00:45:56;;;;;;;;;18.67;18.67;;;;;-146.44;100.00;58906.56;5056162;28;45422;-65
2022/07/24 00:48:21;;;;;;;;;19.67;19.67;;;;;-146.44;100.00;58906.56;5056138;28;45398;-65
2022/07/24 00:50:47;;;;;;;;;21.00;20.25;;;;;-146.44;100.00;58906.56;5055959;28;46073;-65
2022/07/24 00:53:14;;;;;;;;;20.67;19.00;;;;;-146.44;100.00;58906.56;5055901;28;45359;-65
2022/07/24 00:55:39;;;;;;;;;22.00;20.33;;;;;-146.44;100.00;58906.56;5056101;28;45481;-65
2022/07/24 00:58:05;;;;;;;;;19.00;18.25;;;;;-146.44;100.00;58906.56;5055954;28;45438;-65
2022/07/24 01:00:30;;;;;;;;;20.33;20.33;;;;;-146.44;100.00;58906.56;5055698;28;45407;-65
2022/07/24 01:02:56;;;;;;;;;23.33;20.67;;;;;-146.44;100.00;58906.56;5055745;28;45573;-65
2022/07/24 01:05:22;;;;;;;;;23.25;18.25;;;;;-146.44;100.00;58906.56;5055870;28;45469;-65
2022/07/24 01:07:47;;;;;;;;;19.75;19.25;;;;;-146.44;100.00;58906.56;5071645;27;45459;-65
2022/07/24 01:10:14;;;;;;;;;20.67;19.33;;;;;-146.44;100.00;58906.56;5055694;28;46131;-65
2022/07/24 01:12:40;;;;;;;;;16.75;16.75;;;;;-146.44;100.00;58906.56;5054689;28;45517;-65
2022/07/24 01:15:08;;;;;;;;;15.50;15.50;;;;;-146.44;100.00;58906.56;5061202;28;45423;-65
2022/07/24 01:17:37;;;;;;;;;21.50;19.00;;;;;-146.44;100.00;58906.56;5075825;28;45412;-65
2022/07/24 01:20:05;;;;;;;;;17.00;17.00;;;;;-146.44;100.00;58906.56;5074264;28;48233;-65
2022/07/24 01:22:30;;;;;;;;;18.25;16.50;;;;;-146.44;100.00;58906.56;5075690;27;45394;-65
2022/07/24 01:24:56;;;;;;;;;16.00;16.00;;;;;-146.44;100.00;58906.56;5075710;27;45361;-66
2022/07/24 01:27:22;;;;;;;;;19.25;17.25;;;;;-146.44;100.00;58906.56;5075783;28;45365;-65
2022/07/24 01:29:48;;;;;;;;;17.67;17.33;;;;;-146.44;100.00;58906.56;5075687;27;45469;-65
2022/07/24 01:32:14;;;;;;;;;17.00;15.75;;;;;-146.44;100.00;58906.56;5075376;27;45456;-65
2022/07/24 01:34:39;;;;;;;;;19.00;18.00;;;;;-146.44;100.00;58906.56;5074574;27;45565;-65
2022/07/24 01:37:06;;;;;;;;;18.00;15.00;;;;;-146.44;100.00;58906.56;5075614;28;45426;-65
2022/07/24 01:39:31;;;;;;;;;18.00;18.00;;;;;-146.44;100.00;58906.56;5075515;28;45567;-65
2022/07/24 01:41:56;;;;;;;;;17.00;17.00;;;;;-146.44;100.00;58906.56;5075315;27;45605;-65
2022/07/24 01:44:22;;;;;;;;;18.67;17.33;;;;;-146.44;100.00;58906.56;5075655;28;45950;-65
2022/07/24 01:46:47;;;;;;;;;18.33;17.00;;;;;-146.44;100.00;58906.56;5075343;28;45472;-65
2022/07/24 01:49:13;;;;;;;;;17.50;17.50;;;;;-146.44;100.00;58906.56;5090642;27;46278;-65
2022/07/24 01:51:38;;;;;;;;;19.67;19.67;;;;;-146.44;100.00;58906.56;5075594;28;45419;-65
2022/07/24 01:54:04;;;;;;;;;17.75;16.75;;;;;-146.44;100.00;58906.56;5075241;28;45448;-65
2022/07/24 01:56:30;;;;;;;;;17.00;17.00;;;;;-146.44;100.00;58906.56;5075319;28;45543;-65
2022/07/24 01:58:55;;;;;;;;;16.75;15.75;;;;;-146.44;100.00;58906.56;5075066;28;45440;-66
2022/07/24 02:01:21;;;;;;;;;15.75;15.00;;;;;-146.44;100.00;58906.56;5075203;27;45472;-66
2022/07/24 02:03:46;;;;;;;;;17.33;16.00;;;;;-146.44;100.00;58906.56;5075195;28;45649;-66
2022/07/24 02:06:12;;;;;;;;;18.33;17.33;;;;;-146.44;100.00;58906.56;5075063;28;45513;-65
2022/07/24 02:08:37;;;;;;;;;18.50;17.50;;;;;-146.44;100.00;58906.56;5073818;27;45643;-65
2022/07/24 02:11:03;;;;;;;;;18.67;18.67;;;;;-146.44;100.00;58906.56;5075079;28;45304;-65
2022/07/24 02:13:28;;;;;;;;;20.50;17.50;;;;;-146.44;100.00;58906.56;5073774;28;45460;-65
2022/07/24 02:15:54;;;;;;;;;17.67;17.67;;;;;-146.44;100.00;58906.56;5074881;28;45542;-65
2022/07/24 02:18:19;;;;;;;;;20.00;17.67;;;;;-146.44;100.00;58906.56;5074843;28;45481;-65
2022/07/24 02:20:44;;;;;;;;;17.67;15.67;;;;;-146.44;100.00;58906.56;5074843;28;45504;-65
2022/07/24 02:23:10;;;;;;;;;18.00;17.67;;;;;-146.44;100.00;58906.56;5075139;28;46049;-65
2022/07/24 02:25:35;;;;;;;;;22.00;19.67;;;;;-146.44;100.00;58906.56;5078633;28;45425;-65
2022/07/24 02:28:00;;;;;;;;;18.25;16.00;;;;;-146.44;100.00;58906.56;5078120;28;45453;-65
2022/07/24 02:30:26;;;;;;;;;17.33;17.33;;;;;-146.44;100.00;58906.56;5078220;28;45441;-65
2022/07/24 02:32:52;;;;;;;;;16.00;16.00;;;;;-146.44;100.00;58906.56;5078520;28;45413;-65
2022/07/24 02:35:17;;;;;;;;;16.00;15.00;;;;;-146.44;100.00;58906.56;5078433;28;45704;-65
2022/07/24 02:37:44;;;;;;;;;15.00;15.00;;;;;-146.44;100.00;58906.56;5078196;28;45511;-65
2022/07/24 02:40:11;;;;;;;;;13.67;13.67;;;;;-146.44;100.00;58906.56;5078286;28;45407;-65
2022/07/24 02:42:37;;;;;;;;;19.00;18.00;;;;;-146.44;100.00;58906.56;5078225;27;45457;-65
2022/07/24 02:45:04;;;;;;;;;18.67;16.00;;;;;-146.44;100.00;58906.56;5078348;27;45362;-65
2022/07/24 02:47:30;;;;;;;;;18.00;18.00;;;;;-146.44;100.00;58906.56;5078024;27;45518;-66
2022/07/24 02:49:55;;;;;;;;;17.00;15.33;;;;;-146.44;100.00;58906.56;5077903;27;45425;-65
2022/07/24 02:52:20;;;;;;;;;15.00;15.00;;;;;-146.44;100.00;58906.56;5078209;28;45474;-65
2022/07/24 02:54:46;;;;;;;;;15.75;14.25;;;;;-146.44;100.00;58906.56;5078124;28;45398;-65
2022/07/24 02:57:11;;;;;;;;;16.67;16.67;;;;;-146.44;100.00;58906.56;5077943;28;45494;-65
2022/07/24 02:59:36;;;;;;;;;17.67;15.67;;;;;-146.44;100.00;58906.56;5078012;28;45466;-66
2022/07/24 03:02:02;;;;;;;;;17.33;17.33;;;;;-146.44;100.00;58906.56;5078488;28;45487;-65
2022/07/24 03:04:27;;;;;;;;;22.33;17.00;;;;;-146.44;100.00;58906.56;5078030;27;45501;-65
2022/07/24 03:06:53;;;;;;;;;19.67;18.00;;;;;-146.44;100.00;58906.56;5077664;28;45499;-65
2022/07/24 03:09:19;;;;;;;;;19.00;17.00;;;;;-146.44;100.00;58906.56;5077768;28;45512;-65
2022/07/24 03:11:44;;;;;;;;;16.00;16.00;;;;;-146.44;100.00;58906.56;5077962;28;45435;-65
2022/07/24 03:14:09;;;;;;;;;19.00;18.00;;;;;-146.44;100.00;58906.56;5077826;28;45396;-65
2022/07/24 03:16:35;;;;;;;;;23.67;22.67;;;;;-146.44;100.00;58906.56;5077277;27;45382;-65
2022/07/24 03:19:00;;;;;;;;;20.33;19.33;;;;;-146.44;100.00;58906.56;5077782;28;45410;-65
2022/07/24 03:21:25;;;;;;;;;21.00;18.00;;;;;-146.44;100.00;58906.56;5077616;28;45798;-65
2022/07/24 03:23:51;;;;;;;;;21.33;21.33;;;;;-146.44;100.00;58906.56;5077682;28;45400;-65
2022/07/24 03:26:16;;;;;;;;;19.50;17.75;;;;;-146.44;100.00;58906.56;5077538;28;46178;-65
2022/07/24 03:28:41;;;;;;;;;22.67;18.33;;;;;-146.44;100.00;58906.56;5077442;28;45418;-65
2022/07/24 03:31:07;;;;;;;;;21.00;21.00;;;;;-146.44;100.00;58906.56;5077518;28;45335;-65
2022/07/24 03:33:33;;;;;;;;;22.00;22.00;;;;;-146.44;100.00;58906.56;5077398;28;45394;-65
2022/07/24 03:35:59;;;;;;;;;15.67;14.67;;;;;-146.44;100.00;58906.56;5075114;28;45445;-65
2022/07/24 03:38:24;;;;;;;;;19.33;17.67;;;;;-146.44;100.00;58906.56;5077280;28;45498;-65
2022/07/24 03:40:49;;;;;;;;;22.33;22.33;;;;;-146.44;100.00;58906.56;5077424;27;45402;-65
2022/07/24 03:43:15;;;;;;;;;20.33;19.33;;;;;-146.44;100.00;58906.56;5077397;28;45447;-65
2022/07/24 03:45:40;;;;;;;;;19.00;16.00;;;;;-146.44;100.00;58906.56;5077266;28;46246;-65
2022/07/24 03:48:05;;;;;;;;;18.33;18.33;;;;;-146.44;100.00;58906.56;5075841;28;45428;-65
2022/07/24 03:50:31;;;;;;;;;24.67;20.33;;;;;-146.44;100.00;58906.56;5075870;28;45464;-65
2022/07/24 03:52:56;;;;;;;;;23.67;20.33;;;;;-146.44;100.00;58906.56;5077234;28;45411;-65
2022/07/24 03:55:22;;;;;;;;;15.00;15.00;;;;;-146.44;100.00;58906.56;5076721;28;45374;-65
2022/07/24 03:57:48;;;;;;;;;18.00;18.00;;;;;-146.44;100.00;58906.56;5077200;27;45401;-66
2022/07/24 04:00:13;;;;;;;;;19.33;18.67;;;;;-146.44;100.00;58906.56;5077105;28;45479;-65
2022/07/24 04:02:40;;;;;;;;;19.00;18.00;;;;;-146.44;100.00;58906.56;5076690;28;45504;-65
2022/07/24 04:05:08;;;;;;;;;18.67;18.67;;;;;-146.44;100.00;58906.56;5076938;28;45400;-65
2022/07/24 04:07:37;;;;;;;;;18.00;18.00;;;;;-146.44;100.00;58906.56;5076847;27;45453;-65
2022/07/24 04:10:03;;;;;;;;;16.33;15.00;;;;;-146.44;100.00;58906.56;5076861;27;45514;-65
2022/07/24 04:12:29;;;;;;;;;20.00;19.67;;;;;-146.44;100.00;58906.56;5076831;27;45417;-65
2022/07/24 04:14:54;;;;;;;;;21.33;18.00;;;;;-146.44;100.00;58906.56;5076597;27;45374;-66
2022/07/24 04:17:20;;;;;;;;;16.67;15.33;;;;;-146.44;100.00;58906.56;5076771;28;45355;-65
2022/07/24 04:19:45;;;;;;;;;17.67;17.67;;;;;-146.44;100.00;58906.56;5076809;28;45493;-65
2022/07/24 04:22:10;;;;;;;;;19.00;17.67;;;;;-146.44;100.00;58906.56;5076689;28;45633;-65
2022/07/24 04:24:35;;;;;;;;;18.00;18.00;;;;;-146.44;100.00;58906.56;5076462;28;45339;-65
2022/07/24 04:27:01;;;;;;;;;18.67;17.33;;;;;-146.44;100.00;58906.56;5076580;28;45383;-65
2022/07/24 04:29:26;;;;;;;;;16.33;16.33;;;;;-146.44;100.00;58906.56;5076499;28;45324;-65
2022/07/24 04:31:52;;;;;;;;;16.00;14.33;;;;;-146.44;100.00;58906.56;5076565;28;45547;-65
2022/07/24 04:34:17;;;;;;;;;18.33;17.00;;;;;-146.44;100.00;58906.56;5076198;28;45390;-65
2022/07/24 04:36:42;;;;;;;;;14.67;14.67;;;;;-146.44;100.00;58906.56;5076372;28;45446;-65
2022/07/24 04:39:08;;;;;;;;;17.00;17.00;;;;;-146.44;100.00;58906.56;5076374;28;45377;-65
2022/07/24 04:41:34;;;;;;;;;16.33;16.00;;;;;-146.44;100.00;58906.56;5076405;28;45620;-65
2022/07/24 04:43:59;;;;;;;;;18.33;18.33;;;;;-146.44;100.00;58906.56;5076076;28;46037;-65
2022/07/24 04:46:24;;;;;;;;;19.00;17.67;;;;;-146.44;100.00;58906.56;5075917;28;45408;-65
2022/07/24 04:48:50;;;;;;;;;18.00;18.00;;;;;-146.44;100.00;58906.56;5075511;28;45436;-65
2022/07/24 04:51:16;;;;;;;;;17.67;16.67;;;;;-146.44;100.00;58906.56;5076329;28;45461;-65
2022/07/24 04:53:41;;;;;;;;;19.33;18.33;;;;;-146.44;100.00;58906.56;5075965;28;45402;-65
2022/07/24 04:56:06;;;;;;;;;17.67;16.33;;;;;-146.44;100.00;58906.56;5075924;28;45371;-65
2022/07/24 04:58:32;;;;;;;;;20.67;17.00;;;;;-146.44;100.00;58906.56;5076122;28;45501;-65
2022/07/24 05:00:58;;;;;;;;;19.67;19.67;;;;;-146.44;100.00;58906.56;5076017;27;45632;-65
2022/07/24 05:03:23;;;;;;;;;18.50;17.25;;;;;-146.44;100.00;58906.56;5075677;28;46106;-65
2022/07/24 05:05:49;;;;;;;;;19.67;18.67;;;;;-146.44;100.00;58906.56;5075844;27;45426;-65
2022/07/24 05:08:14;;;;;;;;;18.00;18.00;;;;;-146.44;100.00;58906.56;5076013;28;45413;-65
2022/07/24 05:10:39;;;;;;;;;16.67;15.33;;;;;-146.44;100.00;58906.56;5074500;28;45694;-65
2022/07/24 05:13:05;;;;;;;;;22.33;20.33;;;;;-146.44;100.00;58906.56;5075657;28;45583;-65
2022/07/24 05:15:31;;;;;;;;;16.33;16.33;;;;;-146.44;100.00;58906.56;5075605;28;45304;-65
2022/07/24 05:17:56;;;;;;;;;16.67;16.00;;;;;-146.44;100.00;58906.56;5075850;27;45466;-65
2022/07/24 05:20:22;;;;;;;;;17.00;17.00;;;;;-146.44;100.00;58906.56;5075786;28;45571;-64
2022/07/24 05:22:47;;;;;;;;;20.00;20.00;;;;;-146.44;100.00;58906.56;5075509;28;45939;-64
2022/07/24 05:25:12;;;;;;;;;17.67;16.67;;;;;-146.44;100.00;58906.56;5075491;28;45435;-64
2022/07/24 05:27:38;;;;;;;;;19.00;18.67;;;;;-146.44;100.00;58906.56;5075744;28;45358;-64
2022/07/24 05:30:04;;;;;;;;;16.00;16.00;;;;;-146.44;100.00;58906.56;5074225;28;45531;-64
2022/07/24 05:32:30;;;;;;;;;17.25;15.50;;;;;-146.44;100.00;58906.56;5075557;28;45684;-65
2022/07/24 05:34:55;;;;;;;;;17.67;17.67;;;;;-146.44;100.00;58906.56;5075532;28;45481;-64
2022/07/24 05:37:20;;;;;;;;;14.00;14.00;;;;;-146.44;100.00;58906.56;5075542;28;45480;-65
2022/07/24 05:39:46;;;;;;;;;14.67;13.33;;;;;-146.44;100.00;58906.56;5075497;28;45601;-64
2022/07/24 05:42:11;;;;;;;;;16.00;15.67;;;;;-146.44;100.00;58906.56;5075319;28;46040;-64
2022/07/24 05:44:37;;;;;;;;;16.33;16.33;;;;;-146.44;100.00;58906.56;5075378;28;45575;-64
2022/07/24 05:47:02;;;;;;;;;18.67;17.00;;;;;-146.44;100.00;58906.56;5075549;28;45492;-64
2022/07/24 05:49:28;;;;;;;;;15.33;15.33;;;;;-146.44;100.00;58906.56;5075322;28;45557;-64
2022/07/24 05:51:53;;;;;;;;;17.00;17.00;;;;;-146.44;100.00;58906.56;5075106;28;45577;-64
2022/07/24 05:54:19;;;;;;;;;12.75;12.75;;;;;-146.44;100.00;58906.56;5075321;28;45497;-64
2022/07/24 05:56:44;;;;;;;;;19.00;16.33;;;;;-146.44;100.00;58906.56;5075419;28;45442;-64
2022/07/24 05:59:09;;;;;;;;;16.33;16.33;;;;;-146.44;100.00;58906.56;5077049;28;45582;-64
2022/07/24 06:01:35;;;;;;;;;17.67;16.33;;;;;-146.44;100.00;58906.56;5078784;28;46014;-64
2022/07/24 06:04:00;;;;;;;;;16.33;16.33;;;;;-146.44;100.00;58906.56;5078737;28;45481;-64
2022/07/24 06:06:25;;;;;;;;;17.75;17.75;;;;;-146.44;100.00;58906.56;5079050;27;45809;-64
2022/07/24 06:08:51;;;;;;;;;23.00;21.00;;;;;-146.44;100.00;58906.56;5078948;28;45528;-63
2022/07/24 06:11:17;;;;;;;;;19.00;17.67;;;;;-146.44;100.00;58906.56;5078500;28;47854;-67
2022/07/24 06:13:43;;;;;;;;;18.00;16.00;;;;;-146.44;100.00;58906.56;5078474;28;45490;-64
2022/07/24 06:16:08;;;;;;;;;18.00;17.33;;;;;-146.44;100.00;58906.56;5094307;27;45383;-64
2022/07/24 06:18:33;;;;;;;;;18.67;18.67;;;;;-146.44;100.00;58906.56;5078503;28;45322;-64
2022/07/24 06:20:59;;;;;;;;;22.00;18.00;;;;;-146.44;100.00;58906.56;5078352;28;46213;-64
2022/07/24 06:23:24;;;;;;;;;17.00;17.00;;;;;-146.44;100.00;58906.56;5078314;28;45348;-64
2022/07/24 06:25:49;;;;;;;;;19.00;17.33;;;;;-146.44;100.00;58906.56;5078409;28;45483;-63
2022/07/24 06:28:15;;;;;;;;;19.00;17.67;;;;;-146.44;100.00;58906.56;5078537;28;45402;-64
2022/07/24 06:30:40;;;;;;;;;20.67;20.33;;;;;-146.44;100.00;58906.56;5078085;28;46306;-64
2022/07/24 06:33:05;;;;;;;;;18.67;17.33;;;;;-146.44;100.00;58906.56;5078333;28;45488;-64
2022/07/24 06:35:32;;;;;;;;;22.00;19.33;;;;;-146.44;100.00;58906.56;5078542;28;45757;-65
2022/07/24 06:37:59;;;;;;;;;19.67;19.67;;;;;-146.44;100.00;58906.56;5078465;28;45629;-64
2022/07/24 06:40:24;;;;;;;;;22.00;19.00;;;;;-146.44;100.00;58906.56;5076623;28;46309;-64
2022/07/24 06:42:51;;;;;;;;;21.33;20.33;;;;;-146.44;100.00;58906.56;5076666;28;45386;-64
2022/07/24 06:45:16;;;;;;;;;19.67;19.67;;;;;-146.44;100.00;58906.56;5078207;27;45398;-64
2022/07/24 06:47:42;;;;;;;;;21.33;20.00;;;;;-146.44;100.00;58906.56;5078127;27;45451;-64
2022/07/24 06:50:08;;;;;;;;;22.00;20.67;;;;;-146.44;100.00;58906.56;5078044;28;45362;-64
2022/07/24 06:52:33;;;;;;;;;20.67;20.67;;;;;-146.44;100.00;58906.56;5077913;28;45466;-64
2022/07/24 06:54:59;;;;;;;;;22.00;19.67;;;;;-146.44;100.00;58906.56;5078187;27;45402;-64
2022/07/24 06:57:25;;;;;;;;;23.33;22.33;;;;;-146.44;100.00;58906.56;5077951;28;45429;-64
2022/07/24 06:59:52;;;;;;;;;23.33;21.67;;;;;-146.44;100.00;58906.56;5077738;28;45528;-65
2022/07/24 07:02:17;;;;;;;;;23.67;22.33;;;;;-146.44;100.00;58906.56;5077692;28;45525;-64
2022/07/24 07:04:43;;;;;;;;;21.67;20.67;;;;;-146.44;100.00;58906.56;5077673;27;45510;-64
2022/07/24 07:07:08;;;;;;;;;20.33;19.33;;;;;-146.44;100.00;58906.56;5077665;28;45503;-64
2022/07/24 07:09:35;;;;;;;;;23.33;22.67;;;;;-146.44;100.00;58906.56;5077019;28;45404;-64
2022/07/24 07:12:01;;;;;;;;;23.00;22.00;;;;;-146.44;100.00;58906.56;5077476;27;45461;-64
2022/07/24 07:14:26;;;;;;;;;23.67;21.67;;;;;-146.44;100.00;58906.56;5077604;27;45370;-64
2022/07/24 07:16:51;;;;;;;;;20.33;20.33;;;;;-146.44;100.00;58906.56;5077696;28;45399;-64
2022/07/24 07:19:17;;;;;;;;;28.00;24.67;;;;;-146.44;100.00;58906.56;5077297;28;51246;-64
2022/07/24 07:21:42;;;;;;;;;21.00;20.00;;;;;-146.44;100.00;58906.56;5077531;28;45459;-64
2022/07/24 07:24:07;;;;;;;;;27.33;23.33;;;;;-146.44;100.00;58906.56;5077741;27;45326;-64
2022/07/24 07:26:33;;;;;;;;;22.00;21.00;;;;;-146.44;100.00;58906.56;5077549;28;45357;-64
2022/07/24 07:28:58;;;;;;;;;22.33;19.00;;;;;-146.44;100.00;58906.56;5077258;28;45321;-64
2022/07/24 07:31:25;;;;;;;;;21.67;21.67;;;;;-146.44;100.00;58906.56;5077539;27;45474;-64
2022/07/24 07:33:51;;;;;;;;;25.33;24.33;;;;;-146.44;100.00;58906.56;5077758;28;45390;-64
2022/07/24 07:36:16;;;;;;;;;23.00;23.00;;;;;-146.44;100.00;58906.56;5077548;27;45434;-64
2022/07/24 07:38:41;;;;;;;;;25.67;23.67;;;;;-146.44;100.00;58906.56;5077250;28;45468;-64
2022/07/24 07:41:07;;;;;;;;;22.67;22.67;;;;;-146.44;100.00;58906.56;5077290;28;45412;-65
2022/07/24 07:43:33;;;;;;;;;22.67;22.67;;;;;-146.44;100.00;58906.56;5077427;28;45440;-65
2022/07/24 07:45:58;;;;;;;;;22.00;21.00;;;;;-146.44;100.00;58906.56;5077443;28;45516;-65
2022/07/24 07:48:23;;;;;;;;;25.67;25.00;;;;;-146.44;100.00;58906.56;5077010;28;46073;-65
2022/07/24 07:50:49;;;;;;;;;23.67;22.67;;;;;-146.44;100.00;58906.56;5077280;28;45520;-65
2022/07/24 07:53:14;;;;;;;;;22.00;21.00;;;;;-146.44;100.00;58906.56;5077061;28;45375;-65
2022/07/24 07:55:39;;;;;;;;;22.33;21.33;;;;;-146.44;100.00;58906.56;5077051;28;45496;-65
2022/07/24 07:58:05;;;;;;;;;21.00;21.00;;;;;-146.44;100.00;58906.56;5077039;28;45596;-65
2022/07/24 08:00:31;;;;;;;;;20.33;20.00;;;;;-146.44;100.00;58906.56;5076882;28;45529;-65
2022/07/24 08:02:56;;;;;;;;;19.33;19.33;;;;;-146.44;100.00;58906.56;5076928;28;45437;-65
2022/07/24 08:05:22;;;;;;;;;22.33;22.33;;;;;-146.44;100.00;58906.56;5076942;28;45647;-65
2022/07/24 08:07:47;;;;;;;;;24.00;22.33;;;;;-146.44;100.00;58906.56;5076451;28;46043;-65
2022/07/24 08:10:12;;;;;;;;;24.67;21.67;;;;;-146.44;100.00;58906.56;5076841;28;45474;-65
2022/07/24 08:12:38;;;;;;;;;18.33;16.33;;;;;-146.44;100.00;58906.56;5076985;27;45430;-65
2022/07/24 08:15:04;;;;;;;;;20.33;20.33;;;;;-146.44;100.00;58906.56;5075315;28;45450;-65
2022/07/24 08:17:29;;;;;;;;;22.00;20.67;;;;;-146.44;100.00;58906.56;5076793;28;45499;-65
2022/07/24 08:19:55;;;;;;;;;25.75;20.75;;;;;-146.44;100.00;58906.56;5092167;27;45440;-65
2022/07/24 08:22:20;;;;;;;;;25.33;24.00;;;;;-146.44;100.00;58906.56;5076198;28;45425;-65
2022/07/24 08:24:45;;;;;;;;;22.00;22.00;;;;;-146.44;100.00;58906.56;5076552;28;45500;-65
2022/07/24 08:27:11;;;;;;;;;22.33;21.00;;;;;-146.44;100.00;58906.56;5076297;28;46289;-65
2022/07/24 08:29:36;;;;;;;;;20.25;19.50;;;;;-146.44;100.00;58906.56;5076549;28;45446;-65
2022/07/24 08:32:02;;;;;;;;;21.33;20.33;;;;;-146.44;100.00;58906.56;5076584;27;46029;-65
2022/07/24 08:34:27;;;;;;;;;20.00;17.25;;;;;-146.44;100.00;58906.56;5076777;27;45425;-65
2022/07/24 08:36:52;;;;;;;;;19.75;18.00;;;;;-146.44;100.00;58906.56;5076368;28;45460;-65
2022/07/24 08:39:18;;;;;;;;;20.33;20.33;;;;;-146.44;100.00;58906.56;5076317;28;45425;-65
2022/07/24 08:41:44;;;;;;;;;23.33;22.00;;;;;-146.44;100.00;58906.56;5076266;28;45505;-65
2022/07/24 08:44:10;;;;;;;;;17.75;17.00;;;;;-146.44;100.00;58906.56;5076130;27;45411;-65
2022/07/24 08:46:40;;;;;;;;;19.33;18.00;;;;;-146.44;100.00;58906.56;5076041;28;45433;-65
2022/07/24 08:49:11;;;;;;;;;20.25;18.50;;;;;-146.44;100.00;58906.56;5076124;27;45429;-65
2022/07/24 08:51:39;;;;;;;;;21.50;19.75;;;;;-146.44;100.00;58906.56;5076274;28;45392;-65
2022/07/24 08:54:05;;;;;;;;;19.00;17.50;;;;;-146.44;100.00;58906.56;5076029;27;45406;-65
2022/07/24 08:56:33;;;;;;;;;15.00;15.00;;;;;-146.44;100.00;58906.56;5075956;28;46172;-65
2022/07/24 08:58:59;;;;;;;;;25.00;22.00;;;;;-146.44;100.00;58906.56;5076066;27;45544;-65
2022/07/24 09:01:25;;;;;;;;;20.25;18.00;;;;;-146.44;100.00;58906.56;5076092;27;45495;-67
2022/07/24 09:03:51;;;;;;;;;16.00;15.00;;;;;-146.44;100.00;58906.56;5075935;27;45496;-65
2022/07/24 09:06:16;;;;;;;;;19.00;18.00;;;;;-146.44;100.00;58906.56;5075901;27;45450;-65
2022/07/24 09:08:56;;;;;;;;;14.75;14.75;;;;;-146.44;100.00;58906.56;5075857;28;45605;-65
2022/07/24 09:11:21;;;;;;;;;17.00;16.00;;;;;-146.44;100.00;58906.56;5076064;28;45508;-65
2022/07/24 09:16:35;;;;;;;;;15.75;15.00;;;;;-146.44;100.00;58906.56;5075512;28;45543;-66
2022/07/24 09:19:09;;;;;;;;;17.00;14.50;;;;;-146.44;100.00;58906.56;5075944;27;45410;-65
2022/07/24 09:21:37;;;;;;;;;16.25;15.00;;;;;-146.44;100.00;58906.56;5075315;28;45361;-65
2022/07/24 09:24:13;;;;;;;;;14.50;13.50;;;;;-146.44;100.00;58906.56;5075706;27;45615;-65
2022/07/24 09:26:43;;;;;;;;;15.50;14.75;;;;;-146.44;100.00;58906.56;5075379;27;45381;-65
2022/07/24 09:29:11;;;;;;;;;14.00;14.00;;;;;-146.44;100.00;58906.56;5075807;28;45513;-65
2022/07/24 09:32:10;;;;;;;;;13.50;11.75;;;;;-146.44;100.00;58906.56;5075830;27;45562;-65
2022/07/24 09:34:39;;;;;;;;;10.75;9.75;;;;;-146.44;100.00;58906.56;5075019;27;45446;-65
2022/07/24 09:37:07;;;;;;;;;10.25;10.25;;;;;-146.44;100.00;58906.56;5075453;27;46379;-65
2022/07/24 09:39:36;;;;;;;;;10.50;10.50;;;;;-146.44;100.00;58906.56;5075629;27;45561;-65
2022/07/24 09:42:04;;;;;;;;;11.00;11.00;;;;;-146.44;100.00;58906.56;5075545;28;45459;-65
2022/07/24 09:44:30;;;;;;;;;11.00;11.00;;;;;-146.44;100.00;58906.56;5075546;27;45429;-65
2022/07/24 09:47:02;;;;;;;;;12.50;12.50;;;;;-146.44;100.00;58906.56;5075327;27;45814;-65
2022/07/24 09:49:29;;;;;;;;;14.50;13.75;;;;;-146.44;100.00;58906.56;5075381;28;45461;-65
2022/07/24 09:52:14;;;;;;;;;12.50;12.25;;;;;-146.44;100.00;58906.56;5075434;27;45442;-65
2022/07/24 09:54:45;;;;;;;;;11.75;10.25;;;;;-146.44;100.00;58906.56;5075491;27;45442;-65
2022/07/24 09:57:23;;;;;;;;;16.25;15.00;;;;;-146.44;100.00;58906.56;5075058;27;45883;-65
2022/07/24 09:59:53;;;;;;;;;11.50;11.50;;;;;-146.44;100.00;58906.56;5074960;27;45499;-65
2022/07/24 10:02:21;;;;;;;;;15.75;15.75;;;;;-146.44;100.00;58906.56;5075044;27;45439;-65
2022/07/24 10:04:48;;;;;;;;;11.25;11.25;;;;;-146.44;100.00;58906.56;5075245;27;45759;-65
2022/07/24 10:07:16;;;;;;;;;10.25;10.25;;;;;-146.44;100.00;58906.56;5073643;28;45636;-65
2022/07/24 10:09:45;;;;;;;;;15.00;13.75;;;;;-146.44;100.00;58906.56;5075156;27;45510;-65
2022/07/24 10:12:19;;;;;;;;;11.00;11.00;;;;;-146.44;100.00;58906.56;5075368;28;45408;-65
2022/07/24 10:14:47;;;;;;;;;11.75;11.75;;;;;-146.44;100.00;58906.56;5075095;28;45540;-66
2022/07/24 10:17:14;;;;;;;;;10.50;9.75;;;;;-146.44;100.00;58906.56;5074884;27;45502;-66
2022/07/24 10:19:47;;;;;;;;;12.25;11.75;;;;;-146.44;100.00;58906.56;5074950;28;45464;-66
2022/07/24 10:22:15;;;;;;;;;8.75;8.75;;;;;-146.44;100.00;58906.56;5075131;27;45379;-66
2022/07/24 10:25:03;;;;;;;;;10.25;10.25;;;;;-146.44;100.00;58906.56;5075086;28;45539;-65
2022/07/24 10:27:37;;;;;;;;;10.00;10.00;;;;;-146.44;100.00;58906.56;5074705;28;45494;-65
2022/07/24 10:30:08;;;;;;;;;9.40;9.40;;;;;-146.44;100.00;58906.56;5074818;27;45394;-65
2022/07/24 10:32:35;;;;;;;;;10.00;9.00;;;;;-146.44;100.00;58906.56;5074846;27;45442;-65
2022/07/24 10:35:06;;;;;;;;;9.50;9.50;;;;;-146.44;100.00;58906.56;5073742;28;45679;-65
2022/07/24 10:37:41;;;;;;;;;10.00;10.00;;;;;-146.44;100.00;58906.56;5074788;28;46067;-65
2022/07/24 10:40:22;;;;;;;;;10.50;10.50;;;;;-146.44;100.00;58906.56;5073481;28;45451;-65
2022/07/24 10:43:06;;;;;;;;;17.00;16.25;;;;;-146.44;100.00;58906.56;5074775;28;45441;-65
2022/07/24 10:45:38;;;;;;;;;8.00;8.00;;;;;-146.44;100.00;58906.56;5076945;28;45349;-65
2022/07/24 10:48:22;;;;;;;;;8.25;8.25;;;;;-146.44;100.00;58906.56;5078159;27;45386;-65
2022/07/24 10:50:56;;;;;;;;;10.25;10.25;;;;;-146.44;100.00;58906.56;5078188;27;45368;-65
2022/07/24 10:53:23;;;;;;;;;12.25;12.25;;;;;-146.44;100.00;58906.56;5078339;28;45442;-65
2022/07/24 10:55:48;;;;;;;;;13.75;12.00;;;;;-146.44;100.00;58906.56;5078046;27;45640;-64